Time;durP1;ratioP1;P1;durP2;ratioP2;P2;SDS_P1;SDS_P2;PMS_P1;PMS_P2;Temp;Humidity;BMP_temperature;BMP_pressure;BME280_temperature;BME280_humidity;BME280_pressure;Samples;Min_cycle;Max_cycle;Signal;HPM_P1;HPM_P2
2021/06/04 00:00:30;;;;;;;9.30;5.10;;;;;;;;;;5052310;28;20414;-67
2021/06/04 00:02:56;;;;;;;6.47;4.95;;;;;;;;;;5052800;28;20263;-67
2021/06/04 00:05:24;;;;;;;7.82;5.30;;;;;;;;;;5051752;28;20104;-68
2021/06/04 00:07:49;;;;;;;6.13;4.85;;;;;;;;;;5043926;28;20025;-66
2021/06/04 00:10:28;;;;;;;8.37;5.93;;;;;;;;;;5052163;28;20025;-68
2021/06/04 00:12:53;;;;;;;6.30;5.15;;;;;;;;;;5050855;28;20260;-68
2021/06/04 00:15:21;;;;;;;6.32;5.57;;;;;;;;;;5051100;28;20368;-67
2021/06/04 00:17:46;;;;;;;8.25;5.07;;;;;;;;;;5051878;28;20145;-67
2021/06/04 00:20:13;;;;;;;7.70;4.97;;;;;;;;;;5050942;28;20021;-67
2021/06/04 00:22:38;;;;;;;8.13;5.53;;;;;;;;;;5051585;28;20772;-68
2021/06/04 00:25:04;;;;;;;6.80;5.47;;;;;;;;;;5050622;28;20029;-68
2021/06/04 00:27:29;;;;;;;7.43;5.05;;;;;;;;;;5051174;28;20426;-67
2021/06/04 00:29:54;;;;;;;6.93;5.20;;;;;;;;;;5051494;28;20036;-68
2021/06/04 00:32:22;;;;;;;8.18;5.28;;;;;;;;;;5050430;28;20263;-67
2021/06/04 00:34:47;;;;;;;8.68;6.07;;;;;;;;;;5051685;28;20387;-67
2021/06/04 00:37:12;;;;;;;9.10;5.87;;;;;;;;;;5051586;28;20025;-68
2021/06/04 00:39:39;;;;;;;7.03;5.18;;;;;;;;;;5050207;28;20266;-68
2021/06/04 00:42:06;;;;;;;8.13;5.22;;;;;;;;;;5051443;28;20074;-68
2021/06/04 00:44:33;;;;;;;8.07;5.47;;;;;;;;;;5050404;28;20025;-69
2021/06/04 00:46:58;;;;;;;10.57;5.68;;;;;;;;;;5047829;28;20393;-67
2021/06/04 00:49:24;;;;;;;10.90;5.93;;;;;;;;;;5047268;28;20021;-68
2021/06/04 00:51:50;;;;;;;11.63;5.10;;;;;;;;;;5046147;28;20062;-68
2021/06/04 00:54:17;;;;;;;10.63;6.30;;;;;;;;;;5047968;28;20028;-69
2021/06/04 00:56:43;;;;;;;6.60;5.10;;;;;;;;;;5054643;28;20017;-68
2021/06/04 00:59:10;;;;;;;7.75;5.53;;;;;;;;;;5051012;28;20017;-68
2021/06/04 01:01:35;;;;;;;7.07;5.20;;;;;;;;;;5050757;28;20029;-69
2021/06/04 01:04:04;;;;;;;7.05;5.03;;;;;;;;;;5050990;28;20103;-68
2021/06/04 01:06:33;;;;;;;7.13;5.60;;;;;;;;;;5051088;28;20032;-69
2021/06/04 01:09:25;;;;;;;7.75;5.53;;;;;;;;;;5052504;28;20487;-69
2021/06/04 01:12:02;;;;;;;9.95;5.57;;;;;;;;;;5050813;28;20047;-69
2021/06/04 01:14:34;;;;;;;6.28;4.93;;;;;;;;;;5052218;28;20020;-68
2021/06/04 01:17:01;;;;;;;10.00;5.10;;;;;;;;;;5051060;28;20517;-69
2021/06/04 01:19:32;;;;;;;9.10;5.65;;;;;;;;;;5051207;28;20075;-68
2021/06/04 01:21:59;;;;;;;7.28;4.93;;;;;;;;;;5053842;28;20158;-68
2021/06/04 01:24:40;;;;;;;11.38;6.20;;;;;;;;;;5070934;28;20016;-69
2021/06/04 01:27:29;;;;;;;8.23;5.18;;;;;;;;;;5046303;28;20490;-68
2021/06/04 01:30:14;;;;;;;12.50;5.60;;;;;;;;;;5033527;28;20063;-69
2021/06/04 01:32:40;;;;;;;9.48;5.50;;;;;;;;;;5045154;28;20037;-71
2021/06/04 01:35:21;;;;;;;9.27;5.50;;;;;;;;;;5045780;28;20017;-68
2021/06/04 01:37:47;;;;;;;9.20;5.45;;;;;;;;;;5044910;28;20036;-69
2021/06/04 01:40:15;;;;;;;12.32;6.05;;;;;;;;;;5045039;28;20025;-69
2021/06/04 01:42:43;;;;;;;6.65;4.90;;;;;;;;;;5045563;28;20025;-69
2021/06/04 01:45:15;;;;;;;11.50;6.10;;;;;;;;;;5045459;28;20028;-69
2021/06/04 01:47:43;;;;;;;10.18;5.63;;;;;;;;;;5044591;28;20422;-69
2021/06/04 01:50:11;;;;;;;9.52;6.03;;;;;;;;;;5046656;28;20120;-69
2021/06/04 01:52:38;;;;;;;9.55;6.18;;;;;;;;;;5044699;28;20024;-69
2021/06/04 01:55:14;;;;;;;8.43;6.32;;;;;;;;;;5044693;28;20029;-69
2021/06/04 01:57:42;;;;;;;8.02;5.97;;;;;;;;;;5045904;28;20017;-69
2021/06/04 02:00:27;;;;;;;9.43;5.97;;;;;;;;;;5045816;28;20429;-68
2021/06/04 02:02:53;;;;;;;11.38;6.68;;;;;;;;;;5043746;28;20491;-68
2021/06/04 02:05:21;;;;;;;13.18;6.65;;;;;;;;;;5046577;28;20516;-68
2021/06/04 02:07:47;;;;;;;13.93;6.95;;;;;;;;;;5044421;28;20497;-68
2021/06/04 02:10:16;;;;;;;11.52;6.65;;;;;;;;;;5044835;28;20021;-68
2021/06/04 02:12:42;;;;;;;8.18;6.65;;;;;;;;;;5044840;28;20426;-68
2021/06/04 02:15:12;;;;;;;11.00;6.28;;;;;;;;;;5045216;28;20040;-68
2021/06/04 02:17:54;;;;;;;11.00;6.30;;;;;;;;;;5044826;28;20407;-68
2021/06/04 02:20:19;;;;;;;9.48;6.57;;;;;;;;;;5046406;28;20498;-68
2021/06/04 02:22:58;;;;;;;8.70;6.60;;;;;;;;;;5044169;28;20033;-68
2021/06/04 02:25:23;;;;;;;11.55;7.00;;;;;;;;;;5044842;28;20545;-67
2021/06/04 02:27:51;;;;;;;9.88;6.88;;;;;;;;;;5044467;28;20025;-67
2021/06/04 02:30:26;;;;;;;9.60;7.18;;;;;;;;;;5045135;28;20103;-69
2021/06/04 02:32:51;;;;;;;11.13;7.30;;;;;;;;;;5044587;28;20064;-66
2021/06/04 02:35:19;;;;;;;8.70;7.13;;;;;;;;;;5046029;28;20083;-66
2021/06/04 02:37:47;;;;;;;10.85;6.95;;;;;;;;;;5044153;28;20414;-67
2021/06/04 02:40:30;;;;;;;8.88;7.05;;;;;;;;;;5044467;28;20051;-67
2021/06/04 02:42:58;;;;;;;9.57;6.35;;;;;;;;;;5044447;28;20046;-67
2021/06/04 02:45:26;;;;;;;10.25;6.63;;;;;;;;;;5049452;28;20033;-66
2021/06/04 02:47:53;;;;;;;8.57;6.38;;;;;;;;;;5051985;28;20352;-67
2021/06/04 02:50:18;;;;;;;12.35;7.07;;;;;;;;;;5046354;28;20024;-69
2021/06/04 02:52:44;;;;;;;10.67;6.80;;;;;;;;;;5047353;28;20025;-69
2021/06/04 02:55:12;;;;;;;11.82;6.28;;;;;;;;;;5048636;28;20114;-68
2021/06/04 02:57:38;;;;;;;11.05;6.75;;;;;;;;;;5053293;28;20104;-68
2021/06/04 03:00:06;;;;;;;8.75;5.60;;;;;;;;;;5048689;28;20519;-68
2021/06/04 03:02:33;;;;;;;10.48;6.68;;;;;;;;;;5048287;28;20024;-68
2021/06/04 03:05:08;;;;;;;12.48;6.90;;;;;;;;;;5048531;28;20479;-68
2021/06/04 03:07:34;;;;;;;7.95;5.80;;;;;;;;;;5047791;28;20375;-68
2021/06/04 03:10:01;;;;;;;8.75;6.45;;;;;;;;;;5048343;28;20048;-69
2021/06/04 03:12:28;;;;;;;11.13;6.57;;;;;;;;;;5048013;28;20017;-68
2021/06/04 03:14:54;;;;;;;10.43;6.18;;;;;;;;;;5037086;28;20029;-68
2021/06/04 03:17:21;;;;;;;11.55;6.82;;;;;;;;;;5047856;28;20170;-68
2021/06/04 03:19:46;;;;;;;8.98;6.68;;;;;;;;;;5047734;28;20033;-68
2021/06/04 03:22:13;;;;;;;10.13;6.95;;;;;;;;;;5048532;28;20516;-67
2021/06/04 03:24:40;;;;;;;9.38;6.50;;;;;;;;;;5048480;28;20040;-68
2021/06/04 03:27:06;;;;;;;7.72;5.80;;;;;;;;;;5048372;28;20526;-67
2021/06/04 03:29:32;;;;;;;8.48;6.40;;;;;;;;;;5049341;28;20092;-67
2021/06/04 03:31:59;;;;;;;11.13;7.03;;;;;;;;;;5048079;28;20194;-67
2021/06/04 03:34:24;;;;;;;10.02;6.57;;;;;;;;;;5048699;28;20757;-68
2021/06/04 03:36:50;;;;;;;10.27;6.75;;;;;;;;;;5048499;28;20027;-68
2021/06/04 03:39:19;;;;;;;9.13;6.47;;;;;;;;;;5048429;28;20024;-68
2021/06/04 03:41:46;;;;;;;11.43;6.55;;;;;;;;;;5048691;28;20013;-68
2021/06/04 03:44:12;;;;;;;15.82;6.75;;;;;;;;;;5049574;28;20128;-68
2021/06/04 03:46:38;;;;;;;8.23;5.78;;;;;;;;;;5053927;28;20021;-68
2021/06/04 03:49:03;;;;;;;11.45;6.88;;;;;;;;;;5055730;28;20017;-68
2021/06/04 03:51:31;;;;;;;10.43;6.88;;;;;;;;;;5052862;28;20568;-68
2021/06/04 03:53:56;;;;;;;15.07;7.38;;;;;;;;;;5048974;28;20033;-68
2021/06/04 03:56:22;;;;;;;12.98;7.65;;;;;;;;;;5046732;28;20024;-68
2021/06/04 03:58:49;;;;;;;12.05;7.55;;;;;;;;;;5047895;28;20032;-68
2021/06/04 04:01:16;;;;;;;9.10;6.63;;;;;;;;;;5047084;28;20070;-68
2021/06/04 04:03:42;;;;;;;10.75;6.97;;;;;;;;;;5045455;28;20025;-68
2021/06/04 04:06:07;;;;;;;13.90;6.75;;;;;;;;;;5046868;28;20036;-68
2021/06/04 04:08:32;;;;;;;8.57;6.55;;;;;;;;;;5046365;28;20035;-68
2021/06/04 04:10:58;;;;;;;13.27;7.07;;;;;;;;;;5046635;28;20044;-68
2021/06/04 04:13:25;;;;;;;9.93;7.05;;;;;;;;;;5047059;28;20631;-68
2021/06/04 04:15:51;;;;;;;9.50;6.93;;;;;;;;;;5046814;28;20028;-68
2021/06/04 04:18:16;;;;;;;11.32;7.80;;;;;;;;;;5046623;28;20021;-69
2021/06/04 04:20:44;;;;;;;9.80;7.60;;;;;;;;;;5046576;28;20048;-68
2021/06/04 04:23:10;;;;;;;11.85;6.75;;;;;;;;;;5046921;28;20263;-68
2021/06/04 04:25:36;;;;;;;12.75;7.05;;;;;;;;;;5046785;28;20138;-68
2021/06/04 04:28:04;;;;;;;9.10;7.30;;;;;;;;;;5046860;28;20020;-68
2021/06/04 04:30:29;;;;;;;8.95;7.07;;;;;;;;;;5046527;28;20479;-68
2021/06/04 04:32:54;;;;;;;10.53;7.57;;;;;;;;;;5046157;28;20036;-68
2021/06/04 04:35:22;;;;;;;11.07;6.57;;;;;;;;;;5045047;28;20263;-68
2021/06/04 04:37:48;;;;;;;11.50;6.82;;;;;;;;;;5046212;28;20029;-68
2021/06/04 04:40:14;;;;;;;10.55;7.28;;;;;;;;;;5046163;28;20087;-68
2021/06/04 04:42:40;;;;;;;17.10;7.25;;;;;;;;;;5046725;28;20033;-68
2021/06/04 04:45:07;;;;;;;14.85;7.35;;;;;;;;;;5046024;28;20037;-68
2021/06/04 04:47:33;;;;;;;11.02;7.65;;;;;;;;;;5047812;28;20074;-68
2021/06/04 04:49:58;;;;;;;12.63;8.70;;;;;;;;;;5063412;28;20021;-68
2021/06/04 04:52:23;;;;;;;9.77;6.90;;;;;;;;;;5050188;28;20025;-68
2021/06/04 04:54:52;;;;;;;14.50;7.90;;;;;;;;;;5044795;28;20366;-68
2021/06/04 04:57:18;;;;;;;8.77;7.10;;;;;;;;;;5045843;28;20013;-68
2021/06/04 04:59:44;;;;;;;9.60;6.70;;;;;;;;;;5046166;28;20033;-68
2021/06/04 05:02:09;;;;;;;10.00;7.30;;;;;;;;;;5046683;28;20033;-68
2021/06/04 05:04:35;;;;;;;10.38;7.18;;;;;;;;;;5044432;28;20095;-68
2021/06/04 05:07:00;;;;;;;18.33;8.20;;;;;;;;;;5045568;28;20442;-68
2021/06/04 05:09:25;;;;;;;10.73;7.40;;;;;;;;;;5045987;28;20013;-68
2021/06/04 05:11:50;;;;;;;20.77;7.88;;;;;;;;;;5046158;28;20722;-68
2021/06/04 05:14:16;;;;;;;17.50;8.40;;;;;;;;;;5045812;28;20431;-68
2021/06/04 05:16:41;;;;;;;11.82;7.05;;;;;;;;;;5044659;28;20032;-68
2021/06/04 05:19:07;;;;;;;11.23;7.88;;;;;;;;;;5045476;28;20382;-68
2021/06/04 05:21:33;;;;;;;16.85;8.73;;;;;;;;;;5043912;28;20017;-68
2021/06/04 05:23:58;;;;;;;12.02;7.97;;;;;;;;;;5045456;28;20117;-68
2021/06/04 05:26:23;;;;;;;13.27;8.38;;;;;;;;;;5045525;28;20029;-68
2021/06/04 05:28:49;;;;;;;10.90;8.20;;;;;;;;;;5046124;28;20025;-68
2021/06/04 05:31:15;;;;;;;14.68;8.73;;;;;;;;;;5046632;28;20021;-68
2021/06/04 05:33:42;;;;;;;11.77;8.73;;;;;;;;;;5044729;28;20156;-68
2021/06/04 05:36:11;;;;;;;13.57;9.15;;;;;;;;;;5045008;28;20037;-68
2021/06/04 05:38:36;;;;;;;12.00;7.97;;;;;;;;;;5044999;28;20551;-68
2021/06/04 05:41:02;;;;;;;14.60;9.00;;;;;;;;;;5044475;28;20108;-68
2021/06/04 05:43:29;;;;;;;19.98;9.85;;;;;;;;;;5044722;28;20044;-68
2021/06/04 05:45:55;;;;;;;11.20;8.98;;;;;;;;;;5043696;28;20032;-68
2021/06/04 05:48:21;;;;;;;12.82;8.40;;;;;;;;;;5044518;28;20028;-68
2021/06/04 05:50:49;;;;;;;14.30;9.63;;;;;;;;;;5046636;28;20012;-68
2021/06/04 05:53:16;;;;;;;13.00;8.90;;;;;;;;;;5048461;28;20024;-68
2021/06/04 05:55:42;;;;;;;16.63;9.93;;;;;;;;;;5045997;28;20070;-68
2021/06/04 05:58:10;;;;;;;13.02;9.45;;;;;;;;;;5046427;28;20060;-68
2021/06/04 06:00:37;;;;;;;18.02;9.50;;;;;;;;;;5046052;28;20080;-68
2021/06/04 06:03:04;;;;;;;17.88;9.25;;;;;;;;;;5045002;28;20514;-68
2021/06/04 06:05:30;;;;;;;12.07;8.98;;;;;;;;;;5045371;28;20505;-68
2021/06/04 06:07:55;;;;;;;12.05;8.32;;;;;;;;;;5045951;28;20045;-68
2021/06/04 06:10:24;;;;;;;14.68;9.07;;;;;;;;;;5032533;28;20032;-68
2021/06/04 06:12:49;;;;;;;14.10;7.57;;;;;;;;;;5045525;28;20523;-68
2021/06/04 06:15:15;;;;;;;13.20;8.00;;;;;;;;;;5044469;28;20112;-68
2021/06/04 06:17:40;;;;;;;13.32;8.48;;;;;;;;;;5044927;28;20057;-68
2021/06/04 06:20:07;;;;;;;10.17;6.60;;;;;;;;;;5048474;28;20619;-68
2021/06/04 06:22:32;;;;;;;11.73;7.78;;;;;;;;;;5045072;28;20668;-68
2021/06/04 06:24:57;;;;;;;12.60;7.80;;;;;;;;;;5046479;28;20024;-68
2021/06/04 06:27:22;;;;;;;11.40;8.53;;;;;;;;;;5047935;28;20256;-68
2021/06/04 06:29:47;;;;;;;11.02;8.20;;;;;;;;;;5050491;28;20263;-68
2021/06/04 06:32:13;;;;;;;14.43;8.05;;;;;;;;;;5049559;28;20017;-68
2021/06/04 06:34:39;;;;;;;14.63;8.35;;;;;;;;;;5050042;28;20430;-68
2021/06/04 06:37:04;;;;;;;12.65;8.60;;;;;;;;;;5050350;28;20044;-69
2021/06/04 06:39:31;;;;;;;22.05;10.77;;;;;;;;;;5063536;28;20089;-68
2021/06/04 06:41:57;;;;;;;28.17;11.55;;;;;;;;;;5062133;28;20426;-68
2021/06/04 06:44:23;;;;;;;18.85;10.18;;;;;;;;;;5053853;28;20082;-68
2021/06/04 06:46:49;;;;;;;19.38;11.52;;;;;;;;;;5053783;28;20021;-68
2021/06/04 06:49:14;;;;;;;21.02;10.15;;;;;;;;;;5052673;28;20041;-68
2021/06/04 06:51:39;;;;;;;19.77;10.18;;;;;;;;;;5056920;28;20028;-68
2021/06/04 06:54:07;;;;;;;17.08;10.27;;;;;;;;;;5053343;28;20475;-68
2021/06/04 06:56:32;;;;;;;25.15;10.10;;;;;;;;;;5053431;28;20021;-68
2021/06/04 06:58:59;;;;;;;17.95;9.15;;;;;;;;;;5053606;28;20035;-68
2021/06/04 07:01:25;;;;;;;18.73;10.23;;;;;;;;;;5053364;28;20017;-68
2021/06/04 07:03:50;;;;;;;25.58;13.15;;;;;;;;;;5053686;28;20456;-68
2021/06/04 07:06:17;;;;;;;25.37;11.87;;;;;;;;;;5053283;28;20111;-69
2021/06/04 07:08:42;;;;;;;24.85;12.52;;;;;;;;;;5053481;28;20045;-68
2021/06/04 07:11:08;;;;;;;20.70;13.10;;;;;;;;;;5053360;28;20139;-69
2021/06/04 07:13:33;;;;;;;22.13;12.98;;;;;;;;;;5053831;28;20013;-68
2021/06/04 07:16:00;;;;;;;23.00;12.73;;;;;;;;;;5053504;28;20061;-69
2021/06/04 07:18:26;;;;;;;21.00;12.02;;;;;;;;;;5053423;28;20348;-69
2021/06/04 07:20:52;;;;;;;31.42;13.50;;;;;;;;;;5052740;28;20028;-69
2021/06/04 07:23:17;;;;;;;27.25;12.25;;;;;;;;;;5054116;28;20083;-69
2021/06/04 07:25:43;;;;;;;21.27;12.20;;;;;;;;;;5052331;28;20517;-68
2021/06/04 07:28:09;;;;;;;21.95;13.60;;;;;;;;;;5053002;28;20025;-69
2021/06/04 07:30:36;;;;;;;23.50;12.93;;;;;;;;;;5061595;28;20029;-69
2021/06/04 07:33:04;;;;;;;24.98;12.75;;;;;;;;;;5061756;28;20025;-69
2021/06/04 07:35:30;;;;;;;24.33;13.13;;;;;;;;;;5053160;28;20130;-69
2021/06/04 07:37:56;;;;;;;28.27;15.38;;;;;;;;;;5052704;28;20723;-69
2021/06/04 07:40:26;;;;;;;24.90;13.73;;;;;;;;;;5054186;28;20040;-69
2021/06/04 07:42:52;;;;;;;22.77;12.68;;;;;;;;;;5052613;28;20032;-69
2021/06/04 07:45:18;;;;;;;29.23;13.20;;;;;;;;;;5053062;28;20506;-69
2021/06/04 07:47:43;;;;;;;20.77;12.52;;;;;;;;;;5051996;28;20166;-69
2021/06/04 07:50:09;;;;;;;21.77;12.40;;;;;;;;;;5052798;28;20597;-69
2021/06/04 07:52:35;;;;;;;25.45;12.15;;;;;;;;;;5053293;28;20325;-69
2021/06/04 07:55:01;;;;;;;19.08;12.13;;;;;;;;;;5072838;28;20021;-69
2021/06/04 07:57:26;;;;;;;25.05;11.98;;;;;;;;;;5067232;28;20029;-69
2021/06/04 07:59:52;;;;;;;21.13;12.30;;;;;;;;;;5051328;28;20227;-69
2021/06/04 08:02:17;;;;;;;18.87;11.73;;;;;;;;;;5052573;28;20048;-68
2021/06/04 08:04:42;;;;;;;18.17;10.27;;;;;;;;;;5052467;28;20251;-68
2021/06/04 08:07:07;;;;;;;16.80;10.25;;;;;;;;;;5052273;28;20094;-69
2021/06/04 08:09:33;;;;;;;16.77;10.40;;;;;;;;;;5057571;28;20012;-68
2021/06/04 08:12:00;;;;;;;14.55;8.38;;;;;;;;;;5052115;28;20776;-69
2021/06/04 08:14:27;;;;;;;17.73;10.40;;;;;;;;;;5052299;28;20025;-68
2021/06/04 08:16:54;;;;;;;19.15;9.93;;;;;;;;;;5051727;28;20037;-68
2021/06/04 08:19:20;;;;;;;14.02;10.20;;;;;;;;;;5052426;28;20145;-68
2021/06/04 08:21:49;;;;;;;20.20;11.07;;;;;;;;;;5051854;28;20059;-68
2021/06/04 08:24:16;;;;;;;17.33;10.90;;;;;;;;;;5052271;28;20071;-69
2021/06/04 08:26:41;;;;;;;22.13;12.18;;;;;;;;;;5062040;28;20031;-69
2021/06/04 08:29:07;;;;;;;22.45;11.32;;;;;;;;;;5072809;28;20025;-69
2021/06/04 08:31:32;;;;;;;18.25;10.75;;;;;;;;;;5058182;28;20540;-69
2021/06/04 08:33:58;;;;;;;20.00;10.55;;;;;;;;;;5051792;28;20056;-69
2021/06/04 08:36:26;;;;;;;19.60;11.20;;;;;;;;;;5051903;28;20361;-69
2021/06/04 08:38:55;;;;;;;23.55;11.25;;;;;;;;;;5052303;28;20263;-69
2021/06/04 08:41:23;;;;;;;19.27;12.98;;;;;;;;;;5051831;28;20029;-68
2021/06/04 08:43:54;;;;;;;21.20;12.23;;;;;;;;;;5051172;28;20029;-68
2021/06/04 08:46:28;;;;;;;17.52;10.63;;;;;;;;;;5046129;28;20029;-69
2021/06/04 08:49:12;;;;;;;22.95;11.90;;;;;;;;;;5067724;28;20178;-68
2021/06/04 08:51:51;;;;;;;21.63;11.50;;;;;;;;;;5051128;28;20096;-68
2021/06/04 08:54:16;;;;;;;17.02;9.93;;;;;;;;;;5047834;28;20024;-69
2021/06/04 08:57:00;;;;;;;21.35;11.30;;;;;;;;;;5050995;28;20108;-71
2021/06/04 08:59:27;;;;;;;25.02;11.98;;;;;;;;;;5051620;28;20028;-68
2021/06/04 09:02:05;;;;;;;20.92;13.52;;;;;;;;;;5051168;28;20108;-71
2021/06/04 09:04:48;;;;;;;21.90;12.65;;;;;;;;;;5044666;28;20529;-70
2021/06/04 09:07:13;;;;;;;20.05;12.02;;;;;;;;;;5046198;28;20520;-67
2021/06/04 09:09:43;;;;;;;20.77;11.77;;;;;;;;;;5050560;28;20032;-67
2021/06/04 09:12:09;;;;;;;23.52;13.23;;;;;;;;;;5050194;28;20266;-67
2021/06/04 09:14:34;;;;;;;17.05;12.52;;;;;;;;;;5050826;28;20017;-69
2021/06/04 09:17:21;;;;;;;17.13;11.87;;;;;;;;;;5050824;28;20056;-69
2021/06/04 09:19:56;;;;;;;18.80;12.35;;;;;;;;;;5055220;28;20505;-67
2021/06/04 09:22:21;;;;;;;25.77;13.43;;;;;;;;;;5030424;28;20025;-68
2021/06/04 09:24:49;;;;;;;18.67;12.63;;;;;;;;;;5048769;28;20102;-68
2021/06/04 09:27:27;;;;;;;17.55;10.60;;;;;;;;;;5051013;28;20017;-68
2021/06/04 09:30:10;;;;;;;19.52;11.25;;;;;;;;;;5050736;28;20045;-69
2021/06/04 09:32:36;;;;;;;22.50;12.40;;;;;;;;;;5051215;28;20070;-69
2021/06/04 09:35:09;;;;;;;23.33;12.77;;;;;;;;;;5050623;28;20032;-69
2021/06/04 09:37:37;;;;;;;22.63;11.90;;;;;;;;;;5051921;28;20036;-69
2021/06/04 09:40:20;;;;;;;22.42;12.40;;;;;;;;;;5050824;28;20072;-69
2021/06/04 09:42:56;;;;;;;33.75;14.57;;;;;;;;;;5050650;28;20017;-69
2021/06/04 09:45:25;;;;;;;21.77;14.10;;;;;;;;;;5076553;22;20071;-64
2021/06/04 09:48:01;;;;;;;16.35;12.32;;;;;;;;;;5052421;28;20045;-66
2021/06/04 09:50:29;;;;;;;22.15;11.35;;;;;;;;;;5066012;28;20027;-65
2021/06/04 09:53:09;;;;;;;15.77;11.23;;;;;;;;;;5069925;28;20028;-65
2021/06/04 09:55:39;;;;;;;24.70;12.38;;;;;;;;;;5053728;28;20112;-64
2021/06/04 09:58:08;;;;;;;19.83;11.48;;;;;;;;;;5049967;28;20555;-64
2021/06/04 10:00:47;;;;;;;22.73;12.70;;;;;;;;;;5048968;28;20029;-64
2021/06/04 10:03:15;;;;;;;18.15;12.25;;;;;;;;;;5051132;28;20513;-65
2021/06/04 10:05:40;;;;;;;26.10;13.43;;;;;;;;;;5049856;28;20502;-64
2021/06/04 10:08:13;;;;;;;21.98;13.90;;;;;;;;;;5050003;28;20055;-65
2021/06/04 10:10:39;;;;;;;25.40;14.93;;;;;;;;;;5049972;28;20021;-64
2021/06/04 10:13:12;;;;;;;22.45;12.32;;;;;;;;;;5050100;28;20338;-64
2021/06/04 10:15:39;;;;;;;20.10;12.32;;;;;;;;;;5050058;28;20031;-66
2021/06/04 10:18:23;;;;;;;20.55;14.38;;;;;;;;;;5049663;28;20024;-65
2021/06/04 10:20:49;;;;;;;22.08;12.93;;;;;;;;;;5049914;28;20036;-66
2021/06/04 10:23:23;;;;;;;25.50;14.55;;;;;;;;;;5050043;28;20013;-64
2021/06/04 10:25:53;;;;;;;20.35;14.18;;;;;;;;;;5050742;28;20490;-65
2021/06/04 10:28:27;;;;;;;22.70;15.13;;;;;;;;;;5049691;28;20082;-64
2021/06/04 10:30:53;;;;;;;27.50;16.33;;;;;;;;;;5049302;28;20028;-65
2021/06/04 10:33:36;;;;;;;25.08;16.52;;;;;;;;;;5049523;28;20074;-64
2021/06/04 10:36:03;;;;;;;18.08;13.55;;;;;;;;;;5049808;28;20467;-64
2021/06/04 10:38:39;;;;;;;24.08;15.07;;;;;;;;;;5049579;28;20031;-64
2021/06/04 10:41:12;;;;;;;24.55;16.20;;;;;;;;;;5049969;28;20023;-64
2021/06/04 10:43:37;;;;;;;23.58;13.95;;;;;;;;;;5049294;28;20033;-65
2021/06/04 10:46:14;;;;;;;24.10;14.32;;;;;;;;;;5050038;28;20021;-68
2021/06/04 10:48:55;;;;;;;20.58;14.50;;;;;;;;;;5049340;28;20075;-65
2021/06/04 10:51:39;;;;;;;20.55;13.45;;;;;;;;;;5049671;28;20055;-66
2021/06/04 10:54:20;;;;;;;20.90;14.70;;;;;;;;;;5049243;28;20021;-67
2021/06/04 10:57:03;;;;;;;23.42;13.27;;;;;;;;;;5054872;28;20494;-65
2021/06/04 10:59:55;;;;;;;22.05;13.43;;;;;;;;;;5053422;28;20040;-66
2021/06/04 11:02:29;;;;;;;25.60;13.88;;;;;;;;;;5018576;28;20281;-65
2021/06/04 11:05:26;;;;;;;24.80;13.80;;;;;;;;;;5049376;28;20029;-66
2021/06/04 11:08:08;;;;;;;24.23;16.23;;;;;;;;;;5004841;28;20029;-69
2021/06/04 11:10:42;;;;;;;23.10;14.65;;;;;;;;;;5049789;28;20483;-69
2021/06/04 11:13:19;;;;;;;23.73;11.95;;;;;;;;;;5051468;28;20025;-64
2021/06/04 11:16:03;;;;;;;23.40;13.77;;;;;;;;;;5053190;28;20028;-63
2021/06/04 11:18:34;;;;;;;17.58;13.00;;;;;;;;;;5052937;28;20016;-63
2021/06/04 11:21:02;;;;;;;19.40;14.00;;;;;;;;;;5053247;28;20027;-64
2021/06/04 11:23:44;;;;;;;18.00;12.27;;;;;;;;;;5053514;28;20451;-65
2021/06/04 11:26:15;;;;;;;21.42;11.98;;;;;;;;;;5053178;28;20426;-68
2021/06/04 11:28:43;;;;;;;15.57;10.15;;;;;;;;;;5052802;28;20106;-65
2021/06/04 11:31:20;;;;;;;12.80;9.07;;;;;;;;;;5056625;28;20075;-66
2021/06/04 11:33:48;;;;;;;13.70;8.23;;;;;;;;;;5062534;28;20043;-64
2021/06/04 11:36:25;;;;;;;14.18;8.98;;;;;;;;;;5053034;28;20017;-66
2021/06/04 11:38:52;;;;;;;18.73;9.98;;;;;;;;;;5052272;28;20103;-65
2021/06/04 11:41:32;;;;;;;16.55;10.20;;;;;;;;;;5053056;28;20035;-64
2021/06/04 11:44:16;;;;;;;15.20;11.45;;;;;;;;;;5052557;28;20039;-64
2021/06/04 11:46:41;;;;;;;14.18;10.27;;;;;;;;;;5052477;28;20075;-66
2021/06/04 11:49:08;;;;;;;18.70;11.02;;;;;;;;;;5052817;28;20028;-64
2021/06/04 11:51:35;;;;;;;16.83;10.10;;;;;;;;;;5052032;28;20092;-66
2021/06/04 11:54:19;;;;;;;15.98;9.10;;;;;;;;;;5051320;28;20475;-65
2021/06/04 11:56:44;;;;;;;12.25;7.85;;;;;;;;;;5049003;28;20025;-67
2021/06/04 11:59:30;;;;;;;16.27;9.80;;;;;;;;;;5052659;28;20055;-64
2021/06/04 12:02:18;;;;;;;22.05;12.63;;;;;;;;;;5064329;28;20289;-65
2021/06/04 12:05:02;;;;;;;14.55;8.40;;;;;;;;;;5041349;28;20041;-64
2021/06/04 12:07:39;;;;;;;12.48;8.68;;;;;;;;;;5052420;28;20049;-64
2021/06/04 12:10:05;;;;;;;16.83;9.57;;;;;;;;;;5052491;28;20025;-64
2021/06/04 12:12:31;;;;;;;16.48;11.30;;;;;;;;;;5052482;28;20060;-64
2021/06/04 12:14:57;;;;;;;12.70;9.25;;;;;;;;;;5053476;28;20434;-64
2021/06/04 12:17:33;;;;;;;15.30;11.88;;;;;;;;;;5058485;28;20100;-64
2021/06/04 12:20:17;;;;;;;17.77;10.80;;;;;;;;;;5063941;28;20086;-64
2021/06/04 12:22:53;;;;;;;16.40;11.10;;;;;;;;;;5052054;28;20064;-64
2021/06/04 12:25:47;;;;;;;17.13;10.75;;;;;;;;;;5050488;28;20051;-66
2021/06/04 12:28:19;;;;;;;12.88;9.52;;;;;;;;;;5038491;28;20035;-64
2021/06/04 12:30:44;;;;;;;17.40;9.38;;;;;;;;;;5052047;28;20375;-63
2021/06/04 12:33:09;;;;;;;17.15;10.27;;;;;;;;;;5064730;28;20029;-64
2021/06/04 12:35:36;;;;;;;13.47;9.87;;;;;;;;;;5060436;28;20029;-63
2021/06/04 12:38:25;;;;;;;20.50;9.45;;;;;;;;;;5051411;28;20052;-68
2021/06/04 12:40:52;;;;;;;19.07;11.03;;;;;;;;;;5048652;28;20040;-63
2021/06/04 12:43:22;;;;;;;18.85;10.73;;;;;;;;;;5058591;28;20104;-63
2021/06/04 12:45:54;;;;;;;15.98;9.93;;;;;;;;;;5048155;28;20591;-64
2021/06/04 12:48:21;;;;;;;17.48;11.75;;;;;;;;;;5051064;28;20017;-64
2021/06/04 12:50:56;;;;;;;17.52;12.27;;;;;;;;;;5051697;28;20016;-64
2021/06/04 12:53:24;;;;;;;21.98;12.23;;;;;;;;;;5051216;28;20027;-64
2021/06/04 12:56:09;;;;;;;14.85;9.82;;;;;;;;;;5051160;28;20031;-64
2021/06/04 12:58:34;;;;;;;17.00;11.27;;;;;;;;;;5051224;28;20259;-64
2021/06/04 13:01:29;;;;;;;18.87;10.57;;;;;;;;;;5051774;28;20021;-64
2021/06/04 13:03:55;;;;;;;20.25;11.18;;;;;;;;;;5022360;28;20330;-63
2021/06/04 13:06:21;;;;;;;14.07;10.05;;;;;;;;;;5038814;28;20060;-69
2021/06/04 13:08:48;;;;;;;16.37;11.00;;;;;;;;;;5050444;28;20052;-64
2021/06/04 13:11:13;;;;;;;14.55;9.77;;;;;;;;;;5050692;28;20025;-67
2021/06/04 13:13:41;;;;;;;22.30;10.90;;;;;;;;;;5050898;28;20023;-63
2021/06/04 13:16:23;;;;;;;16.30;11.27;;;;;;;;;;5049818;28;20398;-64
2021/06/04 13:18:50;;;;;;;17.08;9.40;;;;;;;;;;5050862;28;20051;-66
2021/06/04 13:21:49;;;;;;;14.30;10.27;;;;;;;;;;5051415;28;20075;-63
2021/06/04 13:24:23;;;;;;;14.45;9.50;;;;;;;;;;5031027;28;20364;-63
2021/06/04 13:26:49;;;;;;;14.95;9.70;;;;;;;;;;5050577;28;20029;-65
2021/06/04 13:29:33;;;;;;;28.08;11.32;;;;;;;;;;5050621;28;20021;-64
2021/06/04 13:32:04;;;;;;;10.40;8.60;;;;;;;;;;5056702;28;20048;-64
2021/06/04 13:34:35;;;;;;;14.02;9.10;;;;;;;;;;5050757;28;20017;-65
2021/06/04 13:37:00;;;;;;;14.95;9.55;;;;;;;;;;5050452;28;20108;-64
2021/06/04 13:39:28;;;;;;;21.27;9.35;;;;;;;;;;5050970;28;20063;-64
2021/06/04 13:42:02;;;;;;;13.98;9.35;;;;;;;;;;5051028;28;20102;-67
2021/06/04 13:44:30;;;;;;;14.88;9.18;;;;;;;;;;5050787;28;20036;-63
2021/06/04 13:47:07;;;;;;;15.77;9.98;;;;;;;;;;5050431;28;20024;-66
2021/06/04 13:49:34;;;;;;;12.73;9.05;;;;;;;;;;5050756;28;20155;-64
2021/06/04 13:52:12;;;;;;;12.75;8.60;;;;;;;;;;5050821;28;20100;-64
2021/06/04 13:54:46;;;;;;;16.55;8.93;;;;;;;;;;5050158;28;20561;-65
2021/06/04 13:57:27;;;;;;;15.18;9.68;;;;;;;;;;5050773;28;20059;-64
2021/06/04 14:00:11;;;;;;;16.30;9.35;;;;;;;;;;5050682;28;20025;-66
2021/06/04 14:02:36;;;;;;;12.60;9.20;;;;;;;;;;5050779;28;20025;-64
2021/06/04 14:05:20;;;;;;;13.03;8.90;;;;;;;;;;5056841;28;20103;-66
2021/06/04 14:07:45;;;;;;;13.90;9.30;;;;;;;;;;5059294;28;20275;-64
2021/06/04 14:10:20;;;;;;;15.90;8.90;;;;;;;;;;5050480;28;20013;-64
2021/06/04 14:12:45;;;;;;;16.95;9.77;;;;;;;;;;5050629;28;20017;-64
2021/06/04 14:15:30;;;;;;;18.80;10.27;;;;;;;;;;5050337;28;20734;-63
2021/06/04 14:17:56;;;;;;;12.32;9.00;;;;;;;;;;5050280;28;20483;-68
2021/06/04 14:20:32;;;;;;;15.60;10.53;;;;;;;;;;5051291;28;20036;-64
2021/06/04 14:22:58;;;;;;;20.15;11.35;;;;;;;;;;5050248;28;20263;-67
2021/06/04 14:25:25;;;;;;;12.63;9.18;;;;;;;;;;5050087;28;20059;-64
2021/06/04 14:27:53;;;;;;;13.02;9.55;;;;;;;;;;5050084;28;20040;-65
2021/06/04 14:30:23;;;;;;;21.25;9.48;;;;;;;;;;5049908;28;20064;-65
2021/06/04 14:33:07;;;;;;;15.13;10.05;;;;;;;;;;5050001;28;20083;-66
2021/06/04 14:35:40;;;;;;;15.98;9.02;;;;;;;;;;5050935;28;20025;-68
2021/06/04 14:38:20;;;;;;;13.15;9.77;;;;;;;;;;5049910;28;20021;-65
2021/06/04 14:40:45;;;;;;;15.52;9.68;;;;;;;;;;5049766;28;20104;-65